Aviation Digital Data Service (ADDS)

Output produced by METARs form (1909 UTC 28 November 2014)
found at http://www.aviationweather.gov/adds/metars/
 
KLGA 281723Z 2818/2918 31017G23KT P6SM FEW040 
     FM282300 31010KT P6SM SKC 
     FM290600 31006KT P6SM SCT120 SCT250 
     FM291400 25005KT P6SM SCT070 BKN100